Stephen L. — WDE7070 — position and weather

sailwx.info

Track history (hours):
 
Tides and Currents Weather Stations Pressure Air Temp Water Temp Dewpoint Dewpoint Depression Visibility Wind Speed Wind Dir Waves Ship Positions

Stephen L.

Owner: TRIPLE S MARINE, LLC, MORGAN CITY, LA. More information available from US FCC via Universal Licensing System and Coast Guard Vessel Documentation Center.

Last reported at 2017-Oct-20 23:24 UTC. Time now 2017-Oct-22 20:58 UTC.
Position N 29°34' W 090°56'.

Length 20 m.

Type: Ship. MMSI: 367388580.

Date/timePositionNaut miles runAvg speedWind from/ knotsBaromVisibWave heightAir tempDewpointWater temp
2017-Oct-20 23:24N 29°34' W 090°56'4 8.4
2017-Oct-20 22:56N 29°32' W 090°52'3 8.2
2017-Oct-20 22:30N 29°32' W 090°48'4 7.0
2017-Oct-20 22:00N 29°34' W 090°44'3 5.0
2017-Oct-20 21:30N 29°36' W 090°43'3 5.2
2017-Oct-20 21:00N 29°36' W 090°40'4 7.3
2017-Oct-20 20:30N 29°35' W 090°36'4 7.3
2017-Oct-20 20:00N 29°34' W 090°32'1 0.2
2017-Oct-20 17:08N 29°34' W 090°31'1 5.3
2017-Oct-20 16:55N 29°34' W 090°32'2 5.0
2017-Oct-20 16:30N 29°34' W 090°34'3 5.1
2017-Oct-20 16:00N 29°35' W 090°37'3 5.7
2017-Oct-20 15:30N 29°36' W 090°40'2 4.0
2017-Oct-20 15:00N 29°36' W 090°43'3 2.8
2017-Oct-20 14:00N 29°34' W 090°44'2 4.7
2017-Oct-20 13:30N 29°32' W 090°46'3 5.6
2017-Oct-20 13:00N 29°32' W 090°49'66 4.2
2017-Oct-19 21:23N 29°49' W 092°03'2 5.6
2017-Oct-19 21:00N 29°48' W 092°06'3 5.3
2017-Oct-19 20:30N 29°47' W 092°09'2 3.5
2017-Oct-19 20:00N 29°49' W 092°08'1 3.0
2017-Oct-19 19:30N 29°50' W 092°08'3 0.1
2017-Oct-18 23:16N 29°53' W 092°08'2 5.5
2017-Oct-18 22:55N 29°51' W 092°07'1 3.0
2017-Oct-18 22:30N 29°50' W 092°08'0 0.8
2017-Oct-18 22:00N 29°50' W 092°08'  
2017-Oct-16 14:56N 29°52' W 092°08'2 1.9
2017-Oct-16 13:57N 29°50' W 092°08'1 1.6
2017-Oct-16 13:30N 29°50' W 092°08'1 2.9
2017-Oct-16 13:00N 29°48' W 092°08'1 1.7
2017-Oct-16 12:30N 29°47' W 092°09'0 0.2
2017-Oct-16 12:00N 29°48' W 092°09'0 0.0
2017-Oct-16 11:30N 29°48' W 092°09'0 0.0
2017-Oct-16 11:00N 29°48' W 092°09'0 0.0
2017-Oct-16 10:30N 29°48' W 092°09'0 0.0
2017-Oct-16 10:00N 29°48' W 092°09'0 0.0
2017-Oct-16 09:30N 29°48' W 092°09'0 0.0
2017-Oct-16 09:00N 29°48' W 092°09'0 0.0
2017-Oct-16 08:30N 29°48' W 092°09'0 0.0
2017-Oct-16 08:00N 29°48' W 092°09'0 0.0
2017-Oct-16 07:30N 29°48' W 092°09'0 0.0
2017-Oct-16 07:00N 29°48' W 092°09'0 0.0
2017-Oct-16 06:30N 29°48' W 092°09'0 0.0
2017-Oct-16 06:00N 29°48' W 092°09'0 0.0
2017-Oct-16 05:30N 29°48' W 092°09'0 0.0
2017-Oct-16 05:00N 29°48' W 092°09'0 0.0
2017-Oct-16 04:30N 29°48' W 092°09'0 0.0
2017-Oct-16 04:00N 29°48' W 092°09'0 0.0
2017-Oct-16 03:30N 29°48' W 092°09'0 0.0
2017-Oct-16 03:00N 29°48' W 092°09'0 0.0
2017-Oct-16 02:30N 29°48' W 092°09'0 0.0
2017-Oct-16 02:00N 29°48' W 092°09'0 0.0
2017-Oct-16 01:30N 29°48' W 092°09'0 0.2
2017-Oct-16 01:00N 29°48' W 092°09'0 0.0
2017-Oct-16 00:30N 29°48' W 092°09'0 0.9
2017-Oct-16 00:00N 29°48' W 092°08'3 6.1
2017-Oct-15 23:30N 29°51' W 092°08'0 0.0
2017-Oct-15 13:06N 29°51' W 092°07'0 2.8
2017-Oct-15 13:00N 29°51' W 092°08'1 2.4
2017-Oct-15 12:30N 29°50' W 092°08'2 3.3
2017-Oct-15 12:00N 29°48' W 092°08'1 2.2
2017-Oct-15 11:30N 29°47' W 092°07'64 3.5
2017-Oct-14 17:10N 29°34' W 090°56'4 8.0
2017-Oct-14 16:41N 29°32' W 090°52'1 8.1
2017-Oct-14 16:30N 29°32' W 090°50'4 8.0
2017-Oct-14 16:00N 29°32' W 090°46'3 5.9
2017-Oct-14 15:30N 29°34' W 090°43'4 7.3
2017-Oct-14 15:00N 29°30' W 090°43'4 7.5
2017-Oct-14 14:30N 29°27' W 090°43'12 0.4
2017-Oct-13 05:59N 29°34' W 090°33'2 5.2
2017-Oct-13 05:30N 29°35' W 090°35'2 5.0
2017-Oct-13 05:00N 29°35' W 090°38'3 5.7
2017-Oct-13 04:30N 29°36' W 090°41'2 3.3
2017-Oct-13 04:00N 29°36' W 090°43'2 4.2
2017-Oct-13 03:30N 29°34' W 090°44'3 5.0
2017-Oct-13 03:00N 29°32' W 090°46'3 6.5
2017-Oct-13 02:30N 29°32' W 090°50'3 5.8
2017-Oct-13 01:57N 29°33' W 090°54'5 0.2
2017-Oct-11 22:20N 29°36' W 090°58'3 6.0
2017-Oct-11 21:48N 29°34' W 090°55'4 6.3
2017-Oct-11 21:12N 29°32' W 090°51'1 6.3
2017-Oct-11 21:00N 29°32' W 090°50'3 6.2
2017-Oct-11 20:30N 29°32' W 090°46'3 5.4
2017-Oct-11 20:00N 29°34' W 090°44'2 3.0
2017-Oct-11 19:30N 29°33' W 090°42'3 5.5
2017-Oct-11 19:00N 29°30' W 090°43'3 5.4
2017-Oct-11 18:30N 29°28' W 090°43'2 4.7
2017-Oct-11 17:59N 29°25' W 090°43'  
Track history (hours):
 
Tides and Currents Weather Stations Pressure Air Temp Water Temp Dewpoint Dewpoint Depression Visibility Wind Speed Wind Dir Waves Ship Positions

Stephen L.

Owner: TRIPLE S MARINE, LLC, MORGAN CITY, LA. More information available from US FCC via Universal Licensing System and Coast Guard Vessel Documentation Center.

Last reported at 2017-Oct-20 23:24 UTC. Time now 2017-Oct-22 20:58 UTC.
Position N 29°34' W 090°56'.

Length 20 m.

Type: Ship. MMSI: 367388580.

Date/timePositionNaut miles runAvg speedWind from/ knotsBaromVisibWave heightAir tempDewpointWater temp
2017-Oct-20 23:24N 29°34' W 090°56'4 8.4
2017-Oct-20 22:56N 29°32' W 090°52'3 8.2
2017-Oct-20 22:30N 29°32' W 090°48'4 7.0
2017-Oct-20 22:00N 29°34' W 090°44'3 5.0
2017-Oct-20 21:30N 29°36' W 090°43'3 5.2
2017-Oct-20 21:00N 29°36' W 090°40'4 7.3
2017-Oct-20 20:30N 29°35' W 090°36'4 7.3
2017-Oct-20 20:00N 29°34' W 090°32'1 0.2
2017-Oct-20 17:08N 29°34' W 090°31'1 5.3
2017-Oct-20 16:55N 29°34' W 090°32'2 5.0
2017-Oct-20 16:30N 29°34' W 090°34'3 5.1
2017-Oct-20 16:00N 29°35' W 090°37'3 5.7
2017-Oct-20 15:30N 29°36' W 090°40'2 4.0
2017-Oct-20 15:00N 29°36' W 090°43'3 2.8
2017-Oct-20 14:00N 29°34' W 090°44'2 4.7
2017-Oct-20 13:30N 29°32' W 090°46'3 5.6
2017-Oct-20 13:00N 29°32' W 090°49'66 4.2
2017-Oct-19 21:23N 29°49' W 092°03'2 5.6
2017-Oct-19 21:00N 29°48' W 092°06'3 5.3
2017-Oct-19 20:30N 29°47' W 092°09'2 3.5
2017-Oct-19 20:00N 29°49' W 092°08'1 3.0
2017-Oct-19 19:30N 29°50' W 092°08'3 0.1
2017-Oct-18 23:16N 29°53' W 092°08'2 5.5
2017-Oct-18 22:55N 29°51' W 092°07'1 3.0
2017-Oct-18 22:30N 29°50' W 092°08'0 0.8
2017-Oct-18 22:00N 29°50' W 092°08'  
2017-Oct-16 14:56N 29°52' W 092°08'2 1.9
2017-Oct-16 13:57N 29°50' W 092°08'1 1.6
2017-Oct-16 13:30N 29°50' W 092°08'1 2.9
2017-Oct-16 13:00N 29°48' W 092°08'1 1.7
2017-Oct-16 12:30N 29°47' W 092°09'0 0.2
2017-Oct-16 12:00N 29°48' W 092°09'0 0.0
2017-Oct-16 11:30N 29°48' W 092°09'0 0.0
2017-Oct-16 11:00N 29°48' W 092°09'0 0.0
2017-Oct-16 10:30N 29°48' W 092°09'0 0.0
2017-Oct-16 10:00N 29°48' W 092°09'0 0.0
2017-Oct-16 09:30N 29°48' W 092°09'0 0.0
2017-Oct-16 09:00N 29°48' W 092°09'0 0.0
2017-Oct-16 08:30N 29°48' W 092°09'0 0.0
2017-Oct-16 08:00N 29°48' W 092°09'0 0.0
2017-Oct-16 07:30N 29°48' W 092°09'0 0.0
2017-Oct-16 07:00N 29°48' W 092°09'0 0.0
2017-Oct-16 06:30N 29°48' W 092°09'0 0.0
2017-Oct-16 06:00N 29°48' W 092°09'0 0.0
2017-Oct-16 05:30N 29°48' W 092°09'0 0.0
2017-Oct-16 05:00N 29°48' W 092°09'0 0.0
2017-Oct-16 04:30N 29°48' W 092°09'0 0.0
2017-Oct-16 04:00N 29°48' W 092°09'0 0.0
2017-Oct-16 03:30N 29°48' W 092°09'0 0.0
2017-Oct-16 03:00N 29°48' W 092°09'0 0.0
2017-Oct-16 02:30N 29°48' W 092°09'0 0.0
2017-Oct-16 02:00N 29°48' W 092°09'0 0.0
2017-Oct-16 01:30N 29°48' W 092°09'0 0.2
2017-Oct-16 01:00N 29°48' W 092°09'0 0.0
2017-Oct-16 00:30N 29°48' W 092°09'0 0.9
2017-Oct-16 00:00N 29°48' W 092°08'3 6.1
2017-Oct-15 23:30N 29°51' W 092°08'0 0.0
2017-Oct-15 13:06N 29°51' W 092°07'0 2.8
2017-Oct-15 13:00N 29°51' W 092°08'1 2.4
2017-Oct-15 12:30N 29°50' W 092°08'2 3.3
2017-Oct-15 12:00N 29°48' W 092°08'1 2.2
2017-Oct-15 11:30N 29°47' W 092°07'64 3.5
2017-Oct-14 17:10N 29°34' W 090°56'4 8.0
2017-Oct-14 16:41N 29°32' W 090°52'1 8.1
2017-Oct-14 16:30N 29°32' W 090°50'4 8.0
2017-Oct-14 16:00N 29°32' W 090°46'3 5.9
2017-Oct-14 15:30N 29°34' W 090°43'4 7.3
2017-Oct-14 15:00N 29°30' W 090°43'4 7.5
2017-Oct-14 14:30N 29°27' W 090°43'12 0.4
2017-Oct-13 05:59N 29°34' W 090°33'2 5.2
2017-Oct-13 05:30N 29°35' W 090°35'2 5.0
2017-Oct-13 05:00N 29°35' W 090°38'3 5.7
2017-Oct-13 04:30N 29°36' W 090°41'2 3.3
2017-Oct-13 04:00N 29°36' W 090°43'2 4.2
2017-Oct-13 03:30N 29°34' W 090°44'3 5.0
2017-Oct-13 03:00N 29°32' W 090°46'3 6.5
2017-Oct-13 02:30N 29°32' W 090°50'3 5.8
2017-Oct-13 01:57N 29°33' W 090°54'5 0.2
2017-Oct-11 22:20N 29°36' W 090°58'3 6.0
2017-Oct-11 21:48N 29°34' W 090°55'4 6.3
2017-Oct-11 21:12N 29°32' W 090°51'1 6.3
2017-Oct-11 21:00N 29°32' W 090°50'3 6.2
2017-Oct-11 20:30N 29°32' W 090°46'3 5.4
2017-Oct-11 20:00N 29°34' W 090°44'2 3.0
2017-Oct-11 19:30N 29°33' W 090°42'3 5.5
2017-Oct-11 19:00N 29°30' W 090°43'3 5.4
2017-Oct-11 18:30N 29°28' W 090°43'2 4.7
2017-Oct-11 17:59N 29°25' W 090°43'  

Dump ship's entire track history